sensor_id;sensor_type;location;lat;lon;timestamp;P1;durP1;ratioP1;P2;durP2;ratioP2
75593;SDS011;64176;49.156;7.810;2023-09-08T00:02:01;7.68;;;5.60;;
75593;SDS011;64176;49.156;7.810;2023-09-08T00:04:50;6.28;;;5.68;;
75593;SDS011;64176;49.156;7.810;2023-09-08T00:10:20;9.82;;;5.47;;
75593;SDS011;64176;49.156;7.810;2023-09-08T00:13:04;7.93;;;5.63;;
75593;SDS011;64176;49.156;7.810;2023-09-08T00:15:48;9.23;;;6.35;;
75593;SDS011;64176;49.156;7.810;2023-09-08T00:18:32;8.20;;;6.43;;
75593;SDS011;64176;49.156;7.810;2023-09-08T00:21:16;7.97;;;6.15;;
75593;SDS011;64176;49.156;7.810;2023-09-08T00:24:03;6.95;;;6.10;;
75593;SDS011;64176;49.156;7.810;2023-09-08T00:26:48;8.45;;;5.85;;
75593;SDS011;64176;49.156;7.810;2023-09-08T00:29:42;8.20;;;5.75;;
75593;SDS011;64176;49.156;7.810;2023-09-08T00:32:26;9.07;;;5.95;;
75593;SDS011;64176;49.156;7.810;2023-09-08T00:35:11;6.88;;;6.00;;
75593;SDS011;64176;49.156;7.810;2023-09-08T00:37:57;9.18;;;6.15;;
75593;SDS011;64176;49.156;7.810;2023-09-08T00:40:41;6.55;;;5.47;;
75593;SDS011;64176;49.156;7.810;2023-09-08T00:43:25;8.27;;;7.30;;
75593;SDS011;64176;49.156;7.810;2023-09-08T00:46:11;8.77;;;6.70;;
75593;SDS011;64176;49.156;7.810;2023-09-08T00:48:58;7.00;;;6.30;;
75593;SDS011;64176;49.156;7.810;2023-09-08T00:51:42;7.45;;;5.75;;
75593;SDS011;64176;49.156;7.810;2023-09-08T00:54:26;7.07;;;6.38;;
75593;SDS011;64176;49.156;7.810;2023-09-08T00:59:56;7.80;;;6.32;;
75593;SDS011;64176;49.156;7.810;2023-09-08T01:02:41;7.60;;;6.05;;
75593;SDS011;64176;49.156;7.810;2023-09-08T01:05:27;7.25;;;6.28;;
75593;SDS011;64176;49.156;7.810;2023-09-08T01:08:12;8.30;;;7.03;;
75593;SDS011;64176;49.156;7.810;2023-09-08T01:10:59;7.63;;;6.30;;
75593;SDS011;64176;49.156;7.810;2023-09-08T01:13:43;8.15;;;6.05;;
75593;SDS011;64176;49.156;7.810;2023-09-08T01:16:27;7.50;;;6.22;;
75593;SDS011;64176;49.156;7.810;2023-09-08T01:19:20;6.93;;;5.85;;
75593;SDS011;64176;49.156;7.810;2023-09-08T01:22:13;7.82;;;6.38;;
75593;SDS011;64176;49.156;7.810;2023-09-08T01:27:58;7.97;;;6.65;;
75593;SDS011;64176;49.156;7.810;2023-09-08T01:33:31;8.38;;;6.35;;
75593;SDS011;64176;49.156;7.810;2023-09-08T01:36:15;9.20;;;6.68;;
75593;SDS011;64176;49.156;7.810;2023-09-08T01:39:06;9.00;;;6.55;;
75593;SDS011;64176;49.156;7.810;2023-09-08T01:41:53;7.93;;;6.05;;
75593;SDS011;64176;49.156;7.810;2023-09-08T01:44:36;8.13;;;6.15;;
75593;SDS011;64176;49.156;7.810;2023-09-08T01:47:23;7.72;;;5.85;;
75593;SDS011;64176;49.156;7.810;2023-09-08T01:50:07;7.40;;;5.63;;
75593;SDS011;64176;49.156;7.810;2023-09-08T01:52:54;6.55;;;5.95;;
75593;SDS011;64176;49.156;7.810;2023-09-08T01:55:40;8.32;;;5.80;;
75593;SDS011;64176;49.156;7.810;2023-09-08T01:58:24;7.78;;;6.57;;
75593;SDS011;64176;49.156;7.810;2023-09-08T02:01:08;9.13;;;6.55;;
75593;SDS011;64176;49.156;7.810;2023-09-08T02:03:52;6.65;;;5.70;;
75593;SDS011;64176;49.156;7.810;2023-09-08T02:06:40;7.28;;;6.30;;
75593;SDS011;64176;49.156;7.810;2023-09-08T02:12:22;6.57;;;5.35;;
75593;SDS011;64176;49.156;7.810;2023-09-08T02:17:54;8.02;;;5.45;;
75593;SDS011;64176;49.156;7.810;2023-09-08T02:20:41;6.57;;;5.25;;
75593;SDS011;64176;49.156;7.810;2023-09-08T02:23:28;6.63;;;5.82;;
75593;SDS011;64176;49.156;7.810;2023-09-08T02:26:12;9.23;;;5.50;;
75593;SDS011;64176;49.156;7.810;2023-09-08T02:28:56;7.05;;;5.25;;
75593;SDS011;64176;49.156;7.810;2023-09-08T02:31:40;6.50;;;5.65;;
75593;SDS011;64176;49.156;7.810;2023-09-08T02:34:25;10.40;;;6.50;;
75593;SDS011;64176;49.156;7.810;2023-09-08T02:39:59;7.68;;;6.43;;
75593;SDS011;64176;49.156;7.810;2023-09-08T02:42:43;7.03;;;5.60;;
75593;SDS011;64176;49.156;7.810;2023-09-08T02:45:27;6.93;;;6.05;;
75593;SDS011;64176;49.156;7.810;2023-09-08T02:48:14;8.00;;;6.25;;
75593;SDS011;64176;49.156;7.810;2023-09-08T02:50:58;7.93;;;6.40;;
75593;SDS011;64176;49.156;7.810;2023-09-08T02:53:42;7.75;;;6.72;;
75593;SDS011;64176;49.156;7.810;2023-09-08T02:56:28;9.27;;;6.25;;
75593;SDS011;64176;49.156;7.810;2023-09-08T02:59:18;7.22;;;5.75;;
75593;SDS011;64176;49.156;7.810;2023-09-08T03:02:10;7.82;;;6.13;;
75593;SDS011;64176;49.156;7.810;2023-09-08T03:04:54;6.80;;;5.57;;
75593;SDS011;64176;49.156;7.810;2023-09-08T03:07:41;6.75;;;5.45;;
75593;SDS011;64176;49.156;7.810;2023-09-08T03:10:25;7.15;;;5.75;;
75593;SDS011;64176;49.156;7.810;2023-09-08T03:15:56;8.10;;;6.00;;
75593;SDS011;64176;49.156;7.810;2023-09-08T03:18:41;7.22;;;5.85;;
75593;SDS011;64176;49.156;7.810;2023-09-08T03:21:25;6.38;;;5.53;;
75593;SDS011;64176;49.156;7.810;2023-09-08T03:26:55;8.23;;;5.75;;
75593;SDS011;64176;49.156;7.810;2023-09-08T03:32:25;7.53;;;6.57;;
75593;SDS011;64176;49.156;7.810;2023-09-08T03:35:27;7.88;;;6.22;;
75593;SDS011;64176;49.156;7.810;2023-09-08T03:40:57;9.98;;;6.68;;
75593;SDS011;64176;49.156;7.810;2023-09-08T03:43:43;6.65;;;5.63;;
75593;SDS011;64176;49.156;7.810;2023-09-08T03:46:27;7.57;;;6.60;;
75593;SDS011;64176;49.156;7.810;2023-09-08T03:49:11;7.50;;;5.45;;
75593;SDS011;64176;49.156;7.810;2023-09-08T03:51:57;7.95;;;5.72;;
75593;SDS011;64176;49.156;7.810;2023-09-08T03:54:41;7.35;;;5.57;;
75593;SDS011;64176;49.156;7.810;2023-09-08T03:57:27;7.60;;;5.95;;
75593;SDS011;64176;49.156;7.810;2023-09-08T04:00:13;7.13;;;5.82;;
75593;SDS011;64176;49.156;7.810;2023-09-08T04:03:06;7.63;;;6.25;;
75593;SDS011;64176;49.156;7.810;2023-09-08T04:05:51;7.32;;;5.95;;
75593;SDS011;64176;49.156;7.810;2023-09-08T04:08:37;6.10;;;5.07;;
75593;SDS011;64176;49.156;7.810;2023-09-08T04:11:24;7.47;;;5.95;;
75593;SDS011;64176;49.156;7.810;2023-09-08T04:14:10;8.40;;;5.97;;
75593;SDS011;64176;49.156;7.810;2023-09-08T04:16:54;7.07;;;5.43;;
75593;SDS011;64176;49.156;7.810;2023-09-08T04:19:38;6.57;;;5.80;;
75593;SDS011;64176;49.156;7.810;2023-09-08T04:22:25;9.35;;;6.10;;
75593;SDS011;64176;49.156;7.810;2023-09-08T04:27:55;7.43;;;6.00;;
75593;SDS011;64176;49.156;7.810;2023-09-08T04:30:39;6.90;;;5.45;;
75593;SDS011;64176;49.156;7.810;2023-09-08T04:36:10;9.95;;;5.60;;
75593;SDS011;64176;49.156;7.810;2023-09-08T04:38:55;7.20;;;6.15;;
75593;SDS011;64176;49.156;7.810;2023-09-08T04:41:39;6.40;;;5.68;;
75593;SDS011;64176;49.156;7.810;2023-09-08T04:47:12;7.75;;;5.78;;
75593;SDS011;64176;49.156;7.810;2023-09-08T04:49:57;7.18;;;5.30;;
75593;SDS011;64176;49.156;7.810;2023-09-08T04:52:43;6.25;;;5.13;;
75593;SDS011;64176;49.156;7.810;2023-09-08T04:58:13;6.57;;;5.28;;
75593;SDS011;64176;49.156;7.810;2023-09-08T05:00:57;8.85;;;6.07;;
75593;SDS011;64176;49.156;7.810;2023-09-08T05:03:42;22.48;;;6.53;;
75593;SDS011;64176;49.156;7.810;2023-09-08T05:06:29;7.40;;;5.70;;
75593;SDS011;64176;49.156;7.810;2023-09-08T05:09:15;8.70;;;5.55;;
75593;SDS011;64176;49.156;7.810;2023-09-08T05:12:04;9.18;;;5.50;;
75593;SDS011;64176;49.156;7.810;2023-09-08T05:14:50;6.75;;;5.82;;
75593;SDS011;64176;49.156;7.810;2023-09-08T05:17:40;7.10;;;6.20;;
75593;SDS011;64176;49.156;7.810;2023-09-08T05:20:27;7.85;;;5.53;;
75593;SDS011;64176;49.156;7.810;2023-09-08T05:23:11;10.90;;;5.45;;
75593;SDS011;64176;49.156;7.810;2023-09-08T05:25:57;9.98;;;5.80;;
75593;SDS011;64176;49.156;7.810;2023-09-08T05:28:42;7.10;;;6.07;;
75593;SDS011;64176;49.156;7.810;2023-09-08T05:31:29;7.70;;;5.70;;
75593;SDS011;64176;49.156;7.810;2023-09-08T05:34:13;8.20;;;5.82;;
75593;SDS011;64176;49.156;7.810;2023-09-08T05:37:00;8.45;;;6.13;;
75593;SDS011;64176;49.156;7.810;2023-09-08T05:39:44;9.15;;;6.70;;
75593;SDS011;64176;49.156;7.810;2023-09-08T05:42:31;10.10;;;6.60;;
75593;SDS011;64176;49.156;7.810;2023-09-08T05:45:15;8.70;;;6.40;;
75593;SDS011;64176;49.156;7.810;2023-09-08T05:47:59;8.27;;;5.80;;
75593;SDS011;64176;49.156;7.810;2023-09-08T05:50:46;7.82;;;7.03;;
75593;SDS011;64176;49.156;7.810;2023-09-08T05:53:33;8.35;;;7.05;;
75593;SDS011;64176;49.156;7.810;2023-09-08T05:56:19;9.35;;;6.72;;
75593;SDS011;64176;49.156;7.810;2023-09-08T05:59:06;7.60;;;6.80;;
75593;SDS011;64176;49.156;7.810;2023-09-08T06:01:53;7.30;;;6.38;;
75593;SDS011;64176;49.156;7.810;2023-09-08T06:04:37;10.27;;;7.63;;
75593;SDS011;64176;49.156;7.810;2023-09-08T06:07:21;6.90;;;6.20;;
75593;SDS011;64176;49.156;7.810;2023-09-08T06:10:06;6.88;;;5.22;;
75593;SDS011;64176;49.156;7.810;2023-09-08T06:12:54;7.22;;;5.70;;
75593;SDS011;64176;49.156;7.810;2023-09-08T06:15:37;7.40;;;6.38;;
75593;SDS011;64176;49.156;7.810;2023-09-08T06:18:27;8.32;;;6.38;;
75593;SDS011;64176;49.156;7.810;2023-09-08T06:21:11;9.65;;;6.28;;
75593;SDS011;64176;49.156;7.810;2023-09-08T06:23:56;6.55;;;5.65;;
75593;SDS011;64176;49.156;7.810;2023-09-08T06:26:41;6.85;;;6.00;;
75593;SDS011;64176;49.156;7.810;2023-09-08T06:29:26;7.00;;;5.78;;
75593;SDS011;64176;49.156;7.810;2023-09-08T06:35:01;7.93;;;5.38;;
75593;SDS011;64176;49.156;7.810;2023-09-08T06:37:47;6.95;;;5.60;;
75593;SDS011;64176;49.156;7.810;2023-09-08T06:43:17;9.13;;;6.57;;
75593;SDS011;64176;49.156;7.810;2023-09-08T06:46:08;9.90;;;6.40;;
75593;SDS011;64176;49.156;7.810;2023-09-08T06:48:52;6.85;;;5.63;;
75593;SDS011;64176;49.156;7.810;2023-09-08T06:51:37;7.50;;;5.95;;
75593;SDS011;64176;49.156;7.810;2023-09-08T06:54:22;8.13;;;6.55;;
75593;SDS011;64176;49.156;7.810;2023-09-08T06:57:06;7.95;;;6.57;;
75593;SDS011;64176;49.156;7.810;2023-09-08T06:59:50;8.57;;;6.63;;
75593;SDS011;64176;49.156;7.810;2023-09-08T07:02:37;7.95;;;5.97;;
75593;SDS011;64176;49.156;7.810;2023-09-08T07:05:22;7.90;;;6.45;;
75593;SDS011;64176;49.156;7.810;2023-09-08T07:08:06;6.25;;;5.65;;
75593;SDS011;64176;49.156;7.810;2023-09-08T07:10:53;6.93;;;6.22;;
75593;SDS011;64176;49.156;7.810;2023-09-08T07:13:38;6.18;;;5.57;;
75593;SDS011;64176;49.156;7.810;2023-09-08T07:16:22;6.70;;;6.03;;
75593;SDS011;64176;49.156;7.810;2023-09-08T07:19:07;9.10;;;6.32;;
75593;SDS011;64176;49.156;7.810;2023-09-08T07:21:51;11.07;;;6.03;;
75593;SDS011;64176;49.156;7.810;2023-09-08T07:24:37;8.82;;;6.00;;
75593;SDS011;64176;49.156;7.810;2023-09-08T07:27:22;10.52;;;6.05;;
75593;SDS011;64176;49.156;7.810;2023-09-08T07:30:06;9.50;;;5.72;;
75593;SDS011;64176;49.156;7.810;2023-09-08T07:32:52;8.25;;;6.25;;
75593;SDS011;64176;49.156;7.810;2023-09-08T07:35:36;7.00;;;6.35;;
75593;SDS011;64176;49.156;7.810;2023-09-08T07:38:24;7.18;;;6.35;;
75593;SDS011;64176;49.156;7.810;2023-09-08T07:41:09;9.68;;;6.20;;
75593;SDS011;64176;49.156;7.810;2023-09-08T07:43:56;8.35;;;5.97;;
75593;SDS011;64176;49.156;7.810;2023-09-08T07:46:43;7.97;;;6.45;;
75593;SDS011;64176;49.156;7.810;2023-09-08T07:49:33;6.05;;;5.43;;
75593;SDS011;64176;49.156;7.810;2023-09-08T07:52:17;6.05;;;5.20;;
75593;SDS011;64176;49.156;7.810;2023-09-08T07:55:01;6.35;;;5.57;;
75593;SDS011;64176;49.156;7.810;2023-09-08T07:57:46;7.72;;;5.55;;
75593;SDS011;64176;49.156;7.810;2023-09-08T08:00:33;5.95;;;5.35;;
75593;SDS011;64176;49.156;7.810;2023-09-08T08:03:22;6.22;;;5.13;;
75593;SDS011;64176;49.156;7.810;2023-09-08T08:06:06;6.40;;;5.45;;
75593;SDS011;64176;49.156;7.810;2023-09-08T08:08:50;6.38;;;5.15;;
75593;SDS011;64176;49.156;7.810;2023-09-08T08:11:36;6.22;;;5.18;;
75593;SDS011;64176;49.156;7.810;2023-09-08T08:14:20;6.07;;;5.28;;
75593;SDS011;64176;49.156;7.810;2023-09-08T08:17:04;6.20;;;5.40;;
75593;SDS011;64176;49.156;7.810;2023-09-08T08:19:53;9.02;;;5.38;;
75593;SDS011;64176;49.156;7.810;2023-09-08T08:22:38;5.68;;;5.07;;
75593;SDS011;64176;49.156;7.810;2023-09-08T08:25:25;7.15;;;5.32;;
75593;SDS011;64176;49.156;7.810;2023-09-08T08:28:09;7.05;;;5.40;;
75593;SDS011;64176;49.156;7.810;2023-09-08T08:30:53;7.88;;;4.90;;
75593;SDS011;64176;49.156;7.810;2023-09-08T08:33:38;7.05;;;4.97;;
75593;SDS011;64176;49.156;7.810;2023-09-08T08:36:24;5.63;;;5.07;;
75593;SDS011;64176;49.156;7.810;2023-09-08T08:39:11;5.25;;;4.45;;
75593;SDS011;64176;49.156;7.810;2023-09-08T08:41:57;6.05;;;4.78;;
75593;SDS011;64176;49.156;7.810;2023-09-08T08:44:42;7.47;;;4.70;;
75593;SDS011;64176;49.156;7.810;2023-09-08T08:47:27;6.22;;;4.57;;
75593;SDS011;64176;49.156;7.810;2023-09-08T08:50:15;5.05;;;4.55;;
75593;SDS011;64176;49.156;7.810;2023-09-08T08:53:03;6.07;;;5.25;;
75593;SDS011;64176;49.156;7.810;2023-09-08T08:55:48;6.25;;;4.25;;
75593;SDS011;64176;49.156;7.810;2023-09-08T08:58:39;6.28;;;5.18;;
75593;SDS011;64176;49.156;7.810;2023-09-08T09:01:23;5.35;;;4.70;;
75593;SDS011;64176;49.156;7.810;2023-09-08T09:04:09;9.10;;;4.95;;
75593;SDS011;64176;49.156;7.810;2023-09-08T09:06:54;5.95;;;4.72;;
75593;SDS011;64176;49.156;7.810;2023-09-08T09:09:39;4.85;;;4.28;;
75593;SDS011;64176;49.156;7.810;2023-09-08T09:12:26;5.97;;;4.30;;
75593;SDS011;64176;49.156;7.810;2023-09-08T09:15:12;4.93;;;4.43;;
75593;SDS011;64176;49.156;7.810;2023-09-08T09:18:03;6.55;;;5.38;;
75593;SDS011;64176;49.156;7.810;2023-09-08T09:20:54;5.90;;;5.30;;
75593;SDS011;64176;49.156;7.810;2023-09-08T09:23:39;7.63;;;5.10;;
75593;SDS011;64176;49.156;7.810;2023-09-08T09:26:24;6.72;;;5.00;;
75593;SDS011;64176;49.156;7.810;2023-09-08T09:29:13;6.00;;;4.50;;
75593;SDS011;64176;49.156;7.810;2023-09-08T09:32:02;7.18;;;5.38;;
75593;SDS011;64176;49.156;7.810;2023-09-08T09:34:54;4.57;;;4.13;;
75593;SDS011;64176;49.156;7.810;2023-09-08T09:37:40;6.97;;;4.72;;
75593;SDS011;64176;49.156;7.810;2023-09-08T09:40:27;5.40;;;4.90;;
75593;SDS011;64176;49.156;7.810;2023-09-08T09:43:12;6.63;;;5.28;;
75593;SDS011;64176;49.156;7.810;2023-09-08T09:45:58;5.72;;;5.13;;
75593;SDS011;64176;49.156;7.810;2023-09-08T09:48:42;10.25;;;6.50;;
75593;SDS011;64176;49.156;7.810;2023-09-08T09:51:26;6.35;;;5.15;;
75593;SDS011;64176;49.156;7.810;2023-09-08T09:54:11;6.03;;;5.43;;
75593;SDS011;64176;49.156;7.810;2023-09-08T09:56:56;5.60;;;5.10;;
75593;SDS011;64176;49.156;7.810;2023-09-08T09:59:43;7.03;;;5.00;;
75593;SDS011;64176;49.156;7.810;2023-09-08T10:02:27;5.97;;;4.75;;
75593;SDS011;64176;49.156;7.810;2023-09-08T10:05:13;6.47;;;5.30;;
75593;SDS011;64176;49.156;7.810;2023-09-08T10:07:58;5.65;;;5.07;;
75593;SDS011;64176;49.156;7.810;2023-09-08T10:10:45;6.13;;;4.97;;
75593;SDS011;64176;49.156;7.810;2023-09-08T10:13:31;7.50;;;5.82;;
75593;SDS011;64176;49.156;7.810;2023-09-08T10:16:18;6.03;;;5.00;;
75593;SDS011;64176;49.156;7.810;2023-09-08T10:22:00;6.95;;;5.28;;
75593;SDS011;64176;49.156;7.810;2023-09-08T10:24:50;5.72;;;4.82;;
75593;SDS011;64176;49.156;7.810;2023-09-08T10:27:36;5.60;;;4.85;;
75593;SDS011;64176;49.156;7.810;2023-09-08T10:30:21;7.30;;;5.72;;
75593;SDS011;64176;49.156;7.810;2023-09-08T10:33:10;7.75;;;5.43;;
75593;SDS011;64176;49.156;7.810;2023-09-08T10:36:00;5.90;;;4.95;;
75593;SDS011;64176;49.156;7.810;2023-09-08T10:38:47;6.93;;;5.70;;
75593;SDS011;64176;49.156;7.810;2023-09-08T10:41:32;6.45;;;5.07;;
75593;SDS011;64176;49.156;7.810;2023-09-08T10:44:17;4.80;;;4.28;;
75593;SDS011;64176;49.156;7.810;2023-09-08T10:47:01;5.13;;;4.35;;
75593;SDS011;64176;49.156;7.810;2023-09-08T10:49:45;6.32;;;4.85;;
75593;SDS011;64176;49.156;7.810;2023-09-08T10:52:30;5.45;;;4.88;;
75593;SDS011;64176;49.156;7.810;2023-09-08T10:55:16;6.55;;;4.85;;
75593;SDS011;64176;49.156;7.810;2023-09-08T10:58:01;5.28;;;4.55;;
75593;SDS011;64176;49.156;7.810;2023-09-08T11:00:45;5.55;;;4.97;;
75593;SDS011;64176;49.156;7.810;2023-09-08T11:03:47;6.00;;;4.88;;
75593;SDS011;64176;49.156;7.810;2023-09-08T11:06:34;5.20;;;4.65;;
75593;SDS011;64176;49.156;7.810;2023-09-08T11:09:18;5.43;;;4.93;;
75593;SDS011;64176;49.156;7.810;2023-09-08T11:12:04;6.53;;;5.13;;
75593;SDS011;64176;49.156;7.810;2023-09-08T11:14:53;6.05;;;5.28;;
75593;SDS011;64176;49.156;7.810;2023-09-08T11:17:38;5.78;;;5.18;;
75593;SDS011;64176;49.156;7.810;2023-09-08T11:20:26;6.95;;;5.55;;
75593;SDS011;64176;49.156;7.810;2023-09-08T11:23:11;7.00;;;5.32;;
75593;SDS011;64176;49.156;7.810;2023-09-08T11:25:55;5.78;;;5.05;;
75593;SDS011;64176;49.156;7.810;2023-09-08T11:28:43;5.90;;;5.38;;
75593;SDS011;64176;49.156;7.810;2023-09-08T11:31:27;5.85;;;5.25;;
75593;SDS011;64176;49.156;7.810;2023-09-08T11:34:11;5.90;;;5.03;;
75593;SDS011;64176;49.156;7.810;2023-09-08T11:37:00;5.20;;;4.70;;
75593;SDS011;64176;49.156;7.810;2023-09-08T11:39:44;7.15;;;4.75;;
75593;SDS011;64176;49.156;7.810;2023-09-08T11:42:29;6.28;;;5.20;;
75593;SDS011;64176;49.156;7.810;2023-09-08T11:45:14;5.85;;;4.65;;
75593;SDS011;64176;49.156;7.810;2023-09-08T11:48:01;6.43;;;5.32;;
75593;SDS011;64176;49.156;7.810;2023-09-08T11:50:48;7.25;;;5.03;;
75593;SDS011;64176;49.156;7.810;2023-09-08T11:53:32;5.90;;;5.30;;
75593;SDS011;64176;49.156;7.810;2023-09-08T11:56:18;7.65;;;5.15;;
75593;SDS011;64176;49.156;7.810;2023-09-08T11:59:03;8.20;;;5.10;;
75593;SDS011;64176;49.156;7.810;2023-09-08T12:01:47;4.85;;;4.35;;
75593;SDS011;64176;49.156;7.810;2023-09-08T12:04:31;7.07;;;5.03;;
75593;SDS011;64176;49.156;7.810;2023-09-08T12:07:19;6.60;;;5.28;;
75593;SDS011;64176;49.156;7.810;2023-09-08T12:10:12;5.95;;;4.93;;
75593;SDS011;64176;49.156;7.810;2023-09-08T12:12:57;6.05;;;4.80;;
75593;SDS011;64176;49.156;7.810;2023-09-08T12:15:44;6.47;;;4.65;;
75593;SDS011;64176;49.156;7.810;2023-09-08T12:18:37;5.35;;;4.50;;
75593;SDS011;64176;49.156;7.810;2023-09-08T12:21:23;5.90;;;5.03;;
75593;SDS011;64176;49.156;7.810;2023-09-08T12:24:12;6.38;;;5.50;;
75593;SDS011;64176;49.156;7.810;2023-09-08T12:26:57;5.80;;;4.25;;
75593;SDS011;64176;49.156;7.810;2023-09-08T12:29:47;5.03;;;4.53;;
75593;SDS011;64176;49.156;7.810;2023-09-08T12:32:38;4.85;;;4.40;;
75593;SDS011;64176;49.156;7.810;2023-09-08T12:35:23;6.00;;;4.30;;
75593;SDS011;64176;49.156;7.810;2023-09-08T12:38:07;6.70;;;4.72;;
75593;SDS011;64176;49.156;7.810;2023-09-08T12:40:51;4.75;;;4.13;;
75593;SDS011;64176;49.156;7.810;2023-09-08T12:43:35;5.93;;;4.53;;
75593;SDS011;64176;49.156;7.810;2023-09-08T12:46:19;5.72;;;4.80;;
75593;SDS011;64176;49.156;7.810;2023-09-08T12:49:05;5.30;;;4.70;;
75593;SDS011;64176;49.156;7.810;2023-09-08T12:51:49;5.18;;;4.68;;
75593;SDS011;64176;49.156;7.810;2023-09-08T12:54:41;6.20;;;4.35;;
75593;SDS011;64176;49.156;7.810;2023-09-08T12:57:27;6.03;;;4.40;;
75593;SDS011;64176;49.156;7.810;2023-09-08T13:00:11;5.43;;;4.50;;
75593;SDS011;64176;49.156;7.810;2023-09-08T13:02:56;6.60;;;4.22;;
75593;SDS011;64176;49.156;7.810;2023-09-08T13:05:40;4.65;;;4.18;;
75593;SDS011;64176;49.156;7.810;2023-09-08T13:08:24;5.15;;;4.00;;
75593;SDS011;64176;49.156;7.810;2023-09-08T13:11:08;5.07;;;4.57;;
75593;SDS011;64176;49.156;7.810;2023-09-08T13:13:52;5.72;;;4.10;;
75593;SDS011;64176;49.156;7.810;2023-09-08T13:16:36;5.15;;;4.18;;
75593;SDS011;64176;49.156;7.810;2023-09-08T13:19:22;5.53;;;4.10;;
75593;SDS011;64176;49.156;7.810;2023-09-08T13:22:06;5.38;;;4.05;;
75593;SDS011;64176;49.156;7.810;2023-09-08T13:24:51;4.72;;;4.22;;
75593;SDS011;64176;49.156;7.810;2023-09-08T13:27:35;7.13;;;5.00;;
75593;SDS011;64176;49.156;7.810;2023-09-08T13:30:19;5.30;;;4.55;;
75593;SDS011;64176;49.156;7.810;2023-09-08T13:33:05;4.93;;;3.88;;
75593;SDS011;64176;49.156;7.810;2023-09-08T13:35:49;5.05;;;4.20;;
75593;SDS011;64176;49.156;7.810;2023-09-08T13:38:33;5.13;;;4.13;;
75593;SDS011;64176;49.156;7.810;2023-09-08T13:41:18;9.05;;;4.03;;
75593;SDS011;64176;49.156;7.810;2023-09-08T13:44:04;6.40;;;4.28;;
75593;SDS011;64176;49.156;7.810;2023-09-08T13:46:49;5.75;;;4.25;;
75593;SDS011;64176;49.156;7.810;2023-09-08T13:49:34;5.28;;;4.18;;
75593;SDS011;64176;49.156;7.810;2023-09-08T13:52:18;5.80;;;4.47;;
75593;SDS011;64176;49.156;7.810;2023-09-08T13:55:02;6.35;;;4.43;;
75593;SDS011;64176;49.156;7.810;2023-09-08T13:57:46;5.28;;;4.25;;
75593;SDS011;64176;49.156;7.810;2023-09-08T14:00:31;7.32;;;5.03;;
75593;SDS011;64176;49.156;7.810;2023-09-08T14:03:17;4.65;;;4.18;;
75593;SDS011;64176;49.156;7.810;2023-09-08T14:06:02;4.88;;;4.30;;
75593;SDS011;64176;49.156;7.810;2023-09-08T14:08:46;4.78;;;4.13;;
75593;SDS011;64176;49.156;7.810;2023-09-08T14:11:33;6.25;;;4.28;;
75593;SDS011;64176;49.156;7.810;2023-09-08T14:14:17;4.43;;;4.03;;
75593;SDS011;64176;49.156;7.810;2023-09-08T14:17:03;5.88;;;4.20;;
75593;SDS011;64176;49.156;7.810;2023-09-08T14:19:48;6.78;;;4.72;;
75593;SDS011;64176;49.156;7.810;2023-09-08T14:22:35;4.82;;;4.32;;
75593;SDS011;64176;49.156;7.810;2023-09-08T14:25:22;5.25;;;4.68;;
75593;SDS011;64176;49.156;7.810;2023-09-08T14:28:06;6.15;;;4.30;;
75593;SDS011;64176;49.156;7.810;2023-09-08T14:30:53;5.88;;;4.07;;
75593;SDS011;64176;49.156;7.810;2023-09-08T14:33:37;6.43;;;4.35;;
75593;SDS011;64176;49.156;7.810;2023-09-08T14:36:21;5.47;;;4.28;;
75593;SDS011;64176;49.156;7.810;2023-09-08T14:39:04;5.72;;;4.47;;
75593;SDS011;64176;49.156;7.810;2023-09-08T14:41:48;7.93;;;5.20;;
75593;SDS011;64176;49.156;7.810;2023-09-08T14:44:37;5.72;;;4.07;;
75593;SDS011;64176;49.156;7.810;2023-09-08T14:47:24;5.72;;;4.13;;
75593;SDS011;64176;49.156;7.810;2023-09-08T14:50:08;5.28;;;4.20;;
75593;SDS011;64176;49.156;7.810;2023-09-08T14:52:53;5.45;;;4.38;;
75593;SDS011;64176;49.156;7.810;2023-09-08T14:55:37;5.00;;;4.05;;
75593;SDS011;64176;49.156;7.810;2023-09-08T14:58:21;4.60;;;4.20;;
75593;SDS011;64176;49.156;7.810;2023-09-08T15:01:05;6.25;;;4.00;;
75593;SDS011;64176;49.156;7.810;2023-09-08T15:03:51;5.68;;;4.13;;
75593;SDS011;64176;49.156;7.810;2023-09-08T15:06:35;5.65;;;4.07;;
75593;SDS011;64176;49.156;7.810;2023-09-08T15:09:19;15.38;;;4.60;;
75593;SDS011;64176;49.156;7.810;2023-09-08T15:12:06;5.82;;;4.55;;
75593;SDS011;64176;49.156;7.810;2023-09-08T15:14:50;6.57;;;4.90;;
75593;SDS011;64176;49.156;7.810;2023-09-08T15:17:34;4.78;;;4.38;;
75593;SDS011;64176;49.156;7.810;2023-09-08T15:20:18;5.47;;;4.22;;
75593;SDS011;64176;49.156;7.810;2023-09-08T15:23:02;8.25;;;4.70;;
75593;SDS011;64176;49.156;7.810;2023-09-08T15:25:50;5.22;;;3.75;;
75593;SDS011;64176;49.156;7.810;2023-09-08T15:28:38;4.57;;;3.88;;
75593;SDS011;64176;49.156;7.810;2023-09-08T15:31:22;7.20;;;4.95;;
75593;SDS011;64176;49.156;7.810;2023-09-08T15:34:07;6.97;;;5.00;;
75593;SDS011;64176;49.156;7.810;2023-09-08T15:36:51;7.20;;;4.80;;
75593;SDS011;64176;49.156;7.810;2023-09-08T15:39:35;7.00;;;4.88;;
75593;SDS011;64176;49.156;7.810;2023-09-08T15:42:19;6.35;;;5.00;;
75593;SDS011;64176;49.156;7.810;2023-09-08T15:45:03;6.30;;;5.68;;
75593;SDS011;64176;49.156;7.810;2023-09-08T15:47:48;7.85;;;5.20;;
75593;SDS011;64176;49.156;7.810;2023-09-08T15:50:32;10.48;;;5.40;;
75593;SDS011;64176;49.156;7.810;2023-09-08T15:53:16;6.57;;;5.15;;
75593;SDS011;64176;49.156;7.810;2023-09-08T15:56:00;5.43;;;4.93;;
75593;SDS011;64176;49.156;7.810;2023-09-08T15:58:44;7.93;;;5.60;;
75593;SDS011;64176;49.156;7.810;2023-09-08T16:01:28;7.65;;;5.30;;
75593;SDS011;64176;49.156;7.810;2023-09-08T16:04:11;6.18;;;4.80;;
75593;SDS011;64176;49.156;7.810;2023-09-08T16:06:55;8.95;;;5.07;;
75593;SDS011;64176;49.156;7.810;2023-09-08T16:09:42;5.95;;;5.05;;
75593;SDS011;64176;49.156;7.810;2023-09-08T16:12:26;6.68;;;5.13;;
75593;SDS011;64176;49.156;7.810;2023-09-08T16:15:10;10.15;;;5.20;;
75593;SDS011;64176;49.156;7.810;2023-09-08T16:17:54;10.05;;;4.95;;
75593;SDS011;64176;49.156;7.810;2023-09-08T16:20:41;5.97;;;5.07;;
75593;SDS011;64176;49.156;7.810;2023-09-08T16:23:25;5.60;;;5.10;;
75593;SDS011;64176;49.156;7.810;2023-09-08T16:26:10;7.65;;;5.57;;
75593;SDS011;64176;49.156;7.810;2023-09-08T16:28:54;5.78;;;5.15;;
75593;SDS011;64176;49.156;7.810;2023-09-08T16:31:38;5.72;;;5.20;;
75593;SDS011;64176;49.156;7.810;2023-09-08T16:34:24;7.47;;;5.40;;
75593;SDS011;64176;49.156;7.810;2023-09-08T16:37:08;10.45;;;5.43;;
75593;SDS011;64176;49.156;7.810;2023-09-08T16:39:52;7.30;;;5.28;;
75593;SDS011;64176;49.156;7.810;2023-09-08T16:42:36;6.30;;;5.30;;
75593;SDS011;64176;49.156;7.810;2023-09-08T16:45:20;6.53;;;5.68;;
75593;SDS011;64176;49.156;7.810;2023-09-08T16:48:04;6.95;;;5.78;;
75593;SDS011;64176;49.156;7.810;2023-09-08T16:50:50;6.05;;;5.45;;
75593;SDS011;64176;49.156;7.810;2023-09-08T16:53:34;8.60;;;6.32;;
75593;SDS011;64176;49.156;7.810;2023-09-08T16:56:18;8.45;;;6.20;;
75593;SDS011;64176;49.156;7.810;2023-09-08T16:59:02;7.85;;;5.57;;
75593;SDS011;64176;49.156;7.810;2023-09-08T17:01:46;6.90;;;6.03;;
75593;SDS011;64176;49.156;7.810;2023-09-08T17:04:32;6.75;;;5.40;;
75593;SDS011;64176;49.156;7.810;2023-09-08T17:07:17;6.40;;;5.80;;
75593;SDS011;64176;49.156;7.810;2023-09-08T17:10:01;8.55;;;5.68;;
75593;SDS011;64176;49.156;7.810;2023-09-08T17:12:46;9.63;;;5.63;;
75593;SDS011;64176;49.156;7.810;2023-09-08T17:15:30;9.07;;;6.30;;
75593;SDS011;64176;49.156;7.810;2023-09-08T17:18:14;6.68;;;5.40;;
75593;SDS011;64176;49.156;7.810;2023-09-08T17:21:01;9.68;;;7.43;;
75593;SDS011;64176;49.156;7.810;2023-09-08T17:23:45;8.40;;;6.30;;
75593;SDS011;64176;49.156;7.810;2023-09-08T17:26:29;7.95;;;5.95;;
75593;SDS011;64176;49.156;7.810;2023-09-08T17:29:13;6.80;;;6.10;;